sensor_id;sensor_type;location;lat;lon;timestamp;temperature;humidity
13223;DHT22;6676;45.192;5.722;2023-06-26T00:02:42;23.90;99.90
13223;DHT22;6676;45.192;5.722;2023-06-26T00:05:34;23.90;99.90
13223;DHT22;6676;45.192;5.722;2023-06-26T00:08:25;23.90;99.90
13223;DHT22;6676;45.192;5.722;2023-06-26T00:11:17;23.90;99.90
13223;DHT22;6676;45.192;5.722;2023-06-26T00:14:08;23.80;99.90
13223;DHT22;6676;45.192;5.722;2023-06-26T00:16:59;23.80;99.90
13223;DHT22;6676;45.192;5.722;2023-06-26T00:22:30;23.40;99.90
13223;DHT22;6676;45.192;5.722;2023-06-26T00:28:01;23.30;99.90
13223;DHT22;6676;45.192;5.722;2023-06-26T00:30:52;23.40;99.90
13223;DHT22;6676;45.192;5.722;2023-06-26T00:33:44;23.50;99.90
13223;DHT22;6676;45.192;5.722;2023-06-26T00:36:35;23.60;99.90
13223;DHT22;6676;45.192;5.722;2023-06-26T00:42:09;23.60;99.90
13223;DHT22;6676;45.192;5.722;2023-06-26T00:45:00;23.60;99.90
13223;DHT22;6676;45.192;5.722;2023-06-26T00:47:51;23.40;99.90
13223;DHT22;6676;45.192;5.722;2023-06-26T00:53:23;23.30;99.90
13223;DHT22;6676;45.192;5.722;2023-06-26T00:58:55;23.20;99.90
13223;DHT22;6676;45.192;5.722;2023-06-26T01:01:47;23.20;99.90
13223;DHT22;6676;45.192;5.722;2023-06-26T01:07:22;23.20;99.90
13223;DHT22;6676;45.192;5.722;2023-06-26T01:10:14;23.00;99.90
13223;DHT22;6676;45.192;5.722;2023-06-26T01:13:05;22.80;99.90
13223;DHT22;6676;45.192;5.722;2023-06-26T01:15:58;22.70;99.90
13223;DHT22;6676;45.192;5.722;2023-06-26T01:18:50;22.60;99.90
13223;DHT22;6676;45.192;5.722;2023-06-26T01:21:44;22.60;99.90
13223;DHT22;6676;45.192;5.722;2023-06-26T01:24:38;22.50;99.90
13223;DHT22;6676;45.192;5.722;2023-06-26T01:27:31;22.60;99.90
13223;DHT22;6676;45.192;5.722;2023-06-26T01:30:23;22.70;99.90
13223;DHT22;6676;45.192;5.722;2023-06-26T01:33:17;22.80;99.90
13223;DHT22;6676;45.192;5.722;2023-06-26T01:36:08;22.80;99.90
13223;DHT22;6676;45.192;5.722;2023-06-26T01:39:02;22.80;99.90
13223;DHT22;6676;45.192;5.722;2023-06-26T01:41:53;22.80;99.90
13223;DHT22;6676;45.192;5.722;2023-06-26T01:44:47;22.90;99.90
13223;DHT22;6676;45.192;5.722;2023-06-26T01:47:39;22.90;99.90
13223;DHT22;6676;45.192;5.722;2023-06-26T01:53:13;22.80;99.90
13223;DHT22;6676;45.192;5.722;2023-06-26T01:56:08;22.80;99.90
13223;DHT22;6676;45.192;5.722;2023-06-26T01:59:01;22.90;99.90
13223;DHT22;6676;45.192;5.722;2023-06-26T02:04:36;22.90;99.90
13223;DHT22;6676;45.192;5.722;2023-06-26T02:07:27;22.90;99.90
13223;DHT22;6676;45.192;5.722;2023-06-26T02:10:18;22.90;99.90
13223;DHT22;6676;45.192;5.722;2023-06-26T02:15:52;22.70;99.90
13223;DHT22;6676;45.192;5.722;2023-06-26T02:18:43;22.50;99.90
13223;DHT22;6676;45.192;5.722;2023-06-26T02:24:14;22.30;99.90
13223;DHT22;6676;45.192;5.722;2023-06-26T02:27:06;22.30;99.90
13223;DHT22;6676;45.192;5.722;2023-06-26T02:29:57;22.20;99.90
13223;DHT22;6676;45.192;5.722;2023-06-26T02:32:49;22.10;99.90
13223;DHT22;6676;45.192;5.722;2023-06-26T02:35:41;21.90;99.90
13223;DHT22;6676;45.192;5.722;2023-06-26T02:38:32;21.90;99.90
13223;DHT22;6676;45.192;5.722;2023-06-26T02:41:23;21.90;99.90
13223;DHT22;6676;45.192;5.722;2023-06-26T02:44:15;21.70;99.90
13223;DHT22;6676;45.192;5.722;2023-06-26T02:47:07;21.60;99.90
13223;DHT22;6676;45.192;5.722;2023-06-26T02:50:00;21.60;99.90
13223;DHT22;6676;45.192;5.722;2023-06-26T02:52:54;21.60;99.90
13223;DHT22;6676;45.192;5.722;2023-06-26T02:58:28;21.60;99.90
13223;DHT22;6676;45.192;5.722;2023-06-26T03:01:20;21.50;99.90
13223;DHT22;6676;45.192;5.722;2023-06-26T03:04:11;21.50;99.90
13223;DHT22;6676;45.192;5.722;2023-06-26T03:07:05;21.60;99.90
13223;DHT22;6676;45.192;5.722;2023-06-26T03:12:37;21.40;99.90
13223;DHT22;6676;45.192;5.722;2023-06-26T03:15:28;21.30;99.90
13223;DHT22;6676;45.192;5.722;2023-06-26T03:18:20;21.20;99.90
13223;DHT22;6676;45.192;5.722;2023-06-26T03:21:11;21.30;99.90
13223;DHT22;6676;45.192;5.722;2023-06-26T03:24:03;21.30;99.90
13223;DHT22;6676;45.192;5.722;2023-06-26T03:26:54;21.30;99.90
13223;DHT22;6676;45.192;5.722;2023-06-26T03:32:25;21.50;99.90
13223;DHT22;6676;45.192;5.722;2023-06-26T03:35:16;21.60;99.90
13223;DHT22;6676;45.192;5.722;2023-06-26T03:40:49;21.40;99.90
13223;DHT22;6676;45.192;5.722;2023-06-26T03:43:40;21.40;99.90
13223;DHT22;6676;45.192;5.722;2023-06-26T03:46:36;21.50;99.90
13223;DHT22;6676;45.192;5.722;2023-06-26T03:52:07;21.60;99.90
13223;DHT22;6676;45.192;5.722;2023-06-26T03:55:00;21.60;99.90
13223;DHT22;6676;45.192;5.722;2023-06-26T03:57:54;21.70;99.90
13223;DHT22;6676;45.192;5.722;2023-06-26T04:00:45;21.70;99.90
13223;DHT22;6676;45.192;5.722;2023-06-26T04:03:37;21.80;99.90
13223;DHT22;6676;45.192;5.722;2023-06-26T04:06:29;21.80;99.90
13223;DHT22;6676;45.192;5.722;2023-06-26T04:09:21;21.80;99.90
13223;DHT22;6676;45.192;5.722;2023-06-26T04:12:13;21.50;99.90
13223;DHT22;6676;45.192;5.722;2023-06-26T04:15:06;21.50;99.90
13223;DHT22;6676;45.192;5.722;2023-06-26T04:17:58;21.40;99.90
13223;DHT22;6676;45.192;5.722;2023-06-26T04:21:09;21.30;99.90
13223;DHT22;6676;45.192;5.722;2023-06-26T04:24:01;21.40;99.90
13223;DHT22;6676;45.192;5.722;2023-06-26T04:29:31;21.40;99.90
13223;DHT22;6676;45.192;5.722;2023-06-26T04:32:22;21.40;99.90
13223;DHT22;6676;45.192;5.722;2023-06-26T04:35:13;21.40;99.90
13223;DHT22;6676;45.192;5.722;2023-06-26T04:38:04;21.40;99.90
13223;DHT22;6676;45.192;5.722;2023-06-26T04:40:55;21.30;99.90
13223;DHT22;6676;45.192;5.722;2023-06-26T04:43:47;21.30;99.90
13223;DHT22;6676;45.192;5.722;2023-06-26T04:46:38;21.30;99.90
13223;DHT22;6676;45.192;5.722;2023-06-26T04:52:10;21.40;99.90
13223;DHT22;6676;45.192;5.722;2023-06-26T04:57:41;21.40;99.90
13223;DHT22;6676;45.192;5.722;2023-06-26T05:03:12;21.40;99.90
13223;DHT22;6676;45.192;5.722;2023-06-26T05:06:03;21.50;99.90
13223;DHT22;6676;45.192;5.722;2023-06-26T05:08:56;21.50;99.90
13223;DHT22;6676;45.192;5.722;2023-06-26T05:11:47;21.50;99.90
13223;DHT22;6676;45.192;5.722;2023-06-26T05:17:16;21.60;99.90
13223;DHT22;6676;45.192;5.722;2023-06-26T05:20:10;21.70;99.90
13223;DHT22;6676;45.192;5.722;2023-06-26T05:23:02;21.60;99.90
13223;DHT22;6676;45.192;5.722;2023-06-26T05:25:55;21.60;99.90
13223;DHT22;6676;45.192;5.722;2023-06-26T05:28:47;21.70;99.90
13223;DHT22;6676;45.192;5.722;2023-06-26T05:34:18;21.70;99.90
13223;DHT22;6676;45.192;5.722;2023-06-26T05:37:12;21.70;99.90
13223;DHT22;6676;45.192;5.722;2023-06-26T05:40:08;21.80;99.90
13223;DHT22;6676;45.192;5.722;2023-06-26T05:43:02;21.90;99.90
13223;DHT22;6676;45.192;5.722;2023-06-26T05:45:53;22.00;99.90
13223;DHT22;6676;45.192;5.722;2023-06-26T05:48:44;22.20;99.90
13223;DHT22;6676;45.192;5.722;2023-06-26T05:54:18;22.50;99.90
13223;DHT22;6676;45.192;5.722;2023-06-26T05:57:10;22.60;99.90
13223;DHT22;6676;45.192;5.722;2023-06-26T06:00:05;22.70;99.90
13223;DHT22;6676;45.192;5.722;2023-06-26T06:03:00;22.80;99.90
13223;DHT22;6676;45.192;5.722;2023-06-26T06:05:51;22.90;99.90
13223;DHT22;6676;45.192;5.722;2023-06-26T06:08:42;23.00;99.90
13223;DHT22;6676;45.192;5.722;2023-06-26T06:11:35;23.00;99.90
13223;DHT22;6676;45.192;5.722;2023-06-26T06:14:26;23.20;99.90
13223;DHT22;6676;45.192;5.722;2023-06-26T06:17:18;23.20;99.90
13223;DHT22;6676;45.192;5.722;2023-06-26T06:20:11;23.30;99.90
13223;DHT22;6676;45.192;5.722;2023-06-26T06:23:02;23.30;99.90
13223;DHT22;6676;45.192;5.722;2023-06-26T06:25:54;23.40;99.90
13223;DHT22;6676;45.192;5.722;2023-06-26T06:28:45;23.40;99.90
13223;DHT22;6676;45.192;5.722;2023-06-26T06:31:36;23.40;99.90
13223;DHT22;6676;45.192;5.722;2023-06-26T06:34:28;23.40;99.90
13223;DHT22;6676;45.192;5.722;2023-06-26T06:37:19;23.50;99.90
13223;DHT22;6676;45.192;5.722;2023-06-26T06:40:12;23.50;99.90
13223;DHT22;6676;45.192;5.722;2023-06-26T06:43:03;23.50;99.90
13223;DHT22;6676;45.192;5.722;2023-06-26T06:48:35;23.60;99.90
13223;DHT22;6676;45.192;5.722;2023-06-26T06:51:26;23.70;99.90
13223;DHT22;6676;45.192;5.722;2023-06-26T06:54:17;23.80;99.90
13223;DHT22;6676;45.192;5.722;2023-06-26T06:57:09;23.90;99.90
13223;DHT22;6676;45.192;5.722;2023-06-26T07:00:00;23.90;99.90
13223;DHT22;6676;45.192;5.722;2023-06-26T07:03:00;23.90;99.90
13223;DHT22;6676;45.192;5.722;2023-06-26T07:05:52;23.90;99.90
13223;DHT22;6676;45.192;5.722;2023-06-26T07:08:43;23.90;99.90
13223;DHT22;6676;45.192;5.722;2023-06-26T07:11:35;24.00;99.90
13223;DHT22;6676;45.192;5.722;2023-06-26T07:14:27;24.00;99.90
13223;DHT22;6676;45.192;5.722;2023-06-26T07:17:18;23.90;99.90
13223;DHT22;6676;45.192;5.722;2023-06-26T07:20:11;24.00;99.90
13223;DHT22;6676;45.192;5.722;2023-06-26T07:23:04;24.10;99.90
13223;DHT22;6676;45.192;5.722;2023-06-26T07:25:55;24.20;99.90
13223;DHT22;6676;45.192;5.722;2023-06-26T07:28:47;24.10;99.90
13223;DHT22;6676;45.192;5.722;2023-06-26T07:31:39;23.90;99.90
13223;DHT22;6676;45.192;5.722;2023-06-26T07:37:16;24.00;99.90
13223;DHT22;6676;45.192;5.722;2023-06-26T07:40:11;24.00;99.90
13223;DHT22;6676;45.192;5.722;2023-06-26T07:43:02;24.00;99.90
13223;DHT22;6676;45.192;5.722;2023-06-26T07:45:53;24.10;99.90
13223;DHT22;6676;45.192;5.722;2023-06-26T07:48:46;24.20;99.90
13223;DHT22;6676;45.192;5.722;2023-06-26T07:51:38;24.20;99.90
13223;DHT22;6676;45.192;5.722;2023-06-26T07:54:30;24.30;99.90
13223;DHT22;6676;45.192;5.722;2023-06-26T07:57:21;24.50;99.90
13223;DHT22;6676;45.192;5.722;2023-06-26T08:00:20;24.60;99.90
13223;DHT22;6676;45.192;5.722;2023-06-26T08:03:13;24.50;99.90
13223;DHT22;6676;45.192;5.722;2023-06-26T08:06:06;24.70;99.90
13223;DHT22;6676;45.192;5.722;2023-06-26T08:08:59;24.70;99.90
13223;DHT22;6676;45.192;5.722;2023-06-26T08:11:50;24.70;99.90
13223;DHT22;6676;45.192;5.722;2023-06-26T08:14:41;24.80;99.90
13223;DHT22;6676;45.192;5.722;2023-06-26T08:17:33;24.90;99.90
13223;DHT22;6676;45.192;5.722;2023-06-26T08:20:24;25.00;99.90
13223;DHT22;6676;45.192;5.722;2023-06-26T08:23:15;25.10;99.90
13223;DHT22;6676;45.192;5.722;2023-06-26T08:26:07;25.20;99.90
13223;DHT22;6676;45.192;5.722;2023-06-26T08:28:58;25.30;99.90
13223;DHT22;6676;45.192;5.722;2023-06-26T08:31:50;25.30;99.90
13223;DHT22;6676;45.192;5.722;2023-06-26T08:34:41;25.40;99.90
13223;DHT22;6676;45.192;5.722;2023-06-26T08:37:32;25.50;99.90
13223;DHT22;6676;45.192;5.722;2023-06-26T08:40:24;25.60;99.90
13223;DHT22;6676;45.192;5.722;2023-06-26T08:43:16;25.70;99.90
13223;DHT22;6676;45.192;5.722;2023-06-26T08:46:08;25.70;99.90
13223;DHT22;6676;45.192;5.722;2023-06-26T08:49:05;25.80;99.90
13223;DHT22;6676;45.192;5.722;2023-06-26T08:51:59;26.10;99.90
13223;DHT22;6676;45.192;5.722;2023-06-26T08:54:54;26.40;99.90
13223;DHT22;6676;45.192;5.722;2023-06-26T08:57:48;26.50;99.90
13223;DHT22;6676;45.192;5.722;2023-06-26T09:00:40;26.40;99.90
13223;DHT22;6676;45.192;5.722;2023-06-26T09:03:32;26.50;99.90
13223;DHT22;6676;45.192;5.722;2023-06-26T09:06:24;26.60;99.90
13223;DHT22;6676;45.192;5.722;2023-06-26T09:09:16;26.70;99.90
13223;DHT22;6676;45.192;5.722;2023-06-26T09:12:09;26.80;99.90
13223;DHT22;6676;45.192;5.722;2023-06-26T09:15:02;26.80;99.90
13223;DHT22;6676;45.192;5.722;2023-06-26T09:17:56;26.90;99.90
13223;DHT22;6676;45.192;5.722;2023-06-26T09:20:48;27.00;99.90
13223;DHT22;6676;45.192;5.722;2023-06-26T09:23:42;27.00;99.90
13223;DHT22;6676;45.192;5.722;2023-06-26T09:26:34;27.10;99.90
13223;DHT22;6676;45.192;5.722;2023-06-26T09:29:27;27.30;99.90
13223;DHT22;6676;45.192;5.722;2023-06-26T09:32:19;27.30;99.90
13223;DHT22;6676;45.192;5.722;2023-06-26T09:35:11;27.40;99.90
13223;DHT22;6676;45.192;5.722;2023-06-26T09:38:05;27.50;99.90
13223;DHT22;6676;45.192;5.722;2023-06-26T09:40:57;27.50;99.90
13223;DHT22;6676;45.192;5.722;2023-06-26T09:43:48;27.60;99.90
13223;DHT22;6676;45.192;5.722;2023-06-26T09:46:40;27.60;99.90
13223;DHT22;6676;45.192;5.722;2023-06-26T09:49:32;27.70;99.90
13223;DHT22;6676;45.192;5.722;2023-06-26T09:52:26;27.70;99.90
13223;DHT22;6676;45.192;5.722;2023-06-26T09:55:20;27.80;99.90
13223;DHT22;6676;45.192;5.722;2023-06-26T10:01:15;27.90;99.90
13223;DHT22;6676;45.192;5.722;2023-06-26T10:04:06;28.00;99.90
13223;DHT22;6676;45.192;5.722;2023-06-26T10:07:00;28.00;99.90
13223;DHT22;6676;45.192;5.722;2023-06-26T10:09:52;28.00;99.90
13223;DHT22;6676;45.192;5.722;2023-06-26T10:12:49;28.10;99.90
13223;DHT22;6676;45.192;5.722;2023-06-26T10:15:43;28.20;99.90
13223;DHT22;6676;45.192;5.722;2023-06-26T10:18:37;28.20;99.90
13223;DHT22;6676;45.192;5.722;2023-06-26T10:21:32;28.30;99.90
13223;DHT22;6676;45.192;5.722;2023-06-26T10:24:26;28.30;99.90
13223;DHT22;6676;45.192;5.722;2023-06-26T10:27:19;28.50;99.90
13223;DHT22;6676;45.192;5.722;2023-06-26T10:30:16;28.40;99.90
13223;DHT22;6676;45.192;5.722;2023-06-26T10:33:08;28.40;99.90
13223;DHT22;6676;45.192;5.722;2023-06-26T10:36:14;28.40;99.90
13223;DHT22;6676;45.192;5.722;2023-06-26T10:39:10;28.50;99.90
13223;DHT22;6676;45.192;5.722;2023-06-26T10:42:10;28.50;99.90
13223;DHT22;6676;45.192;5.722;2023-06-26T10:45:09;28.50;99.90
13223;DHT22;6676;45.192;5.722;2023-06-26T10:48:02;28.50;99.90
13223;DHT22;6676;45.192;5.722;2023-06-26T10:50:54;28.60;99.90
13223;DHT22;6676;45.192;5.722;2023-06-26T10:59:39;28.60;99.90
13223;DHT22;6676;45.192;5.722;2023-06-26T11:02:42;28.70;99.90
13223;DHT22;6676;45.192;5.722;2023-06-26T11:05:34;28.60;99.90
13223;DHT22;6676;45.192;5.722;2023-06-26T11:08:45;28.60;99.90
13223;DHT22;6676;45.192;5.722;2023-06-26T11:11:58;28.70;99.90
13223;DHT22;6676;45.192;5.722;2023-06-26T11:14:51;28.80;99.90
13223;DHT22;6676;45.192;5.722;2023-06-26T11:17:44;28.80;99.90
13223;DHT22;6676;45.192;5.722;2023-06-26T11:20:35;28.80;99.90
13223;DHT22;6676;45.192;5.722;2023-06-26T11:23:31;28.90;99.90
13223;DHT22;6676;45.192;5.722;2023-06-26T11:26:29;28.90;99.90
13223;DHT22;6676;45.192;5.722;2023-06-26T11:29:21;29.00;99.90
13223;DHT22;6676;45.192;5.722;2023-06-26T11:32:12;29.00;99.90
13223;DHT22;6676;45.192;5.722;2023-06-26T11:35:06;29.00;99.90
13223;DHT22;6676;45.192;5.722;2023-06-26T11:38:03;29.00;99.90
13223;DHT22;6676;45.192;5.722;2023-06-26T11:40:55;29.00;99.90
13223;DHT22;6676;45.192;5.722;2023-06-26T11:44:06;29.10;99.90
13223;DHT22;6676;45.192;5.722;2023-06-26T11:47:01;29.10;99.90
13223;DHT22;6676;45.192;5.722;2023-06-26T11:49:52;29.10;99.90
13223;DHT22;6676;45.192;5.722;2023-06-26T11:52:44;29.10;99.90
13223;DHT22;6676;45.192;5.722;2023-06-26T11:55:42;29.10;99.90
13223;DHT22;6676;45.192;5.722;2023-06-26T11:58:35;29.20;99.90
13223;DHT22;6676;45.192;5.722;2023-06-26T12:01:26;29.30;99.90
13223;DHT22;6676;45.192;5.722;2023-06-26T12:04:20;29.20;99.90
13223;DHT22;6676;45.192;5.722;2023-06-26T12:07:12;29.20;99.90
13223;DHT22;6676;45.192;5.722;2023-06-26T12:10:04;29.10;99.90
13223;DHT22;6676;45.192;5.722;2023-06-26T12:12:56;29.30;99.90
13223;DHT22;6676;45.192;5.722;2023-06-26T12:15:49;29.30;99.90
13223;DHT22;6676;45.192;5.722;2023-06-26T12:18:40;29.30;99.90
13223;DHT22;6676;45.192;5.722;2023-06-26T12:21:48;29.30;99.90
13223;DHT22;6676;45.192;5.722;2023-06-26T12:24:43;29.40;99.90
13223;DHT22;6676;45.192;5.722;2023-06-26T12:27:36;29.40;99.90
13223;DHT22;6676;45.192;5.722;2023-06-26T12:30:28;29.40;99.90
13223;DHT22;6676;45.192;5.722;2023-06-26T12:33:19;29.50;99.90
13223;DHT22;6676;45.192;5.722;2023-06-26T12:36:12;29.50;99.90
13223;DHT22;6676;45.192;5.722;2023-06-26T12:39:05;29.50;99.90
13223;DHT22;6676;45.192;5.722;2023-06-26T12:42:00;29.60;99.90
13223;DHT22;6676;45.192;5.722;2023-06-26T12:44:54;29.50;99.90
13223;DHT22;6676;45.192;5.722;2023-06-26T12:47:46;29.40;99.90
13223;DHT22;6676;45.192;5.722;2023-06-26T12:50:43;29.40;99.90
13223;DHT22;6676;45.192;5.722;2023-06-26T12:53:35;29.40;99.90
13223;DHT22;6676;45.192;5.722;2023-06-26T12:56:27;29.50;99.90
13223;DHT22;6676;45.192;5.722;2023-06-26T12:59:18;29.60;99.90
13223;DHT22;6676;45.192;5.722;2023-06-26T13:02:10;29.60;99.90
13223;DHT22;6676;45.192;5.722;2023-06-26T13:05:02;29.60;99.90
13223;DHT22;6676;45.192;5.722;2023-06-26T13:07:54;29.40;99.90
13223;DHT22;6676;45.192;5.722;2023-06-26T13:10:45;29.50;99.90
13223;DHT22;6676;45.192;5.722;2023-06-26T13:13:44;29.50;99.90
13223;DHT22;6676;45.192;5.722;2023-06-26T13:16:38;29.50;99.90
13223;DHT22;6676;45.192;5.722;2023-06-26T13:19:29;29.60;99.90
13223;DHT22;6676;45.192;5.722;2023-06-26T13:22:21;29.60;99.90
13223;DHT22;6676;45.192;5.722;2023-06-26T13:25:12;29.60;99.90
13223;DHT22;6676;45.192;5.722;2023-06-26T13:28:04;29.60;99.90
13223;DHT22;6676;45.192;5.722;2023-06-26T13:30:55;29.80;99.90
13223;DHT22;6676;45.192;5.722;2023-06-26T13:33:47;29.70;99.90
13223;DHT22;6676;45.192;5.722;2023-06-26T13:36:39;29.70;99.90
13223;DHT22;6676;45.192;5.722;2023-06-26T13:39:30;29.80;99.90
13223;DHT22;6676;45.192;5.722;2023-06-26T13:42:21;29.90;99.90
13223;DHT22;6676;45.192;5.722;2023-06-26T13:45:16;29.90;99.90
13223;DHT22;6676;45.192;5.722;2023-06-26T13:48:09;30.00;99.90
13223;DHT22;6676;45.192;5.722;2023-06-26T13:51:01;30.30;99.90
13223;DHT22;6676;45.192;5.722;2023-06-26T13:53:52;30.50;99.90
13223;DHT22;6676;45.192;5.722;2023-06-26T13:56:44;30.50;99.90
13223;DHT22;6676;45.192;5.722;2023-06-26T13:59:38;30.60;99.90
13223;DHT22;6676;45.192;5.722;2023-06-26T14:02:33;30.80;99.90
13223;DHT22;6676;45.192;5.722;2023-06-26T14:05:25;30.90;99.90
13223;DHT22;6676;45.192;5.722;2023-06-26T14:08:18;31.00;99.90
13223;DHT22;6676;45.192;5.722;2023-06-26T14:11:10;30.80;99.90
13223;DHT22;6676;45.192;5.722;2023-06-26T14:14:03;30.90;99.90
13223;DHT22;6676;45.192;5.722;2023-06-26T14:17:00;30.90;99.90
13223;DHT22;6676;45.192;5.722;2023-06-26T14:19:53;31.00;99.90
13223;DHT22;6676;45.192;5.722;2023-06-26T14:22:44;31.10;99.90
13223;DHT22;6676;45.192;5.722;2023-06-26T14:25:35;31.20;99.90
13223;DHT22;6676;45.192;5.722;2023-06-26T14:28:27;31.30;99.90
13223;DHT22;6676;45.192;5.722;2023-06-26T14:31:18;31.30;99.90
13223;DHT22;6676;45.192;5.722;2023-06-26T14:34:13;31.40;99.90
13223;DHT22;6676;45.192;5.722;2023-06-26T14:37:05;31.50;99.90
13223;DHT22;6676;45.192;5.722;2023-06-26T14:39:57;31.40;99.90
13223;DHT22;6676;45.192;5.722;2023-06-26T14:42:49;31.40;99.90
13223;DHT22;6676;45.192;5.722;2023-06-26T14:45:43;31.60;99.90
13223;DHT22;6676;45.192;5.722;2023-06-26T14:48:35;31.80;99.90
13223;DHT22;6676;45.192;5.722;2023-06-26T14:51:26;31.90;99.90
13223;DHT22;6676;45.192;5.722;2023-06-26T14:54:17;31.80;99.90
13223;DHT22;6676;45.192;5.722;2023-06-26T14:57:09;31.80;99.90
13223;DHT22;6676;45.192;5.722;2023-06-26T15:00:00;31.80;99.90
13223;DHT22;6676;45.192;5.722;2023-06-26T15:02:53;31.90;99.90
13223;DHT22;6676;45.192;5.722;2023-06-26T15:05:46;32.30;99.90
13223;DHT22;6676;45.192;5.722;2023-06-26T15:08:37;32.10;99.90
13223;DHT22;6676;45.192;5.722;2023-06-26T15:11:29;32.00;99.90
13223;DHT22;6676;45.192;5.722;2023-06-26T15:14:21;32.50;99.90
13223;DHT22;6676;45.192;5.722;2023-06-26T15:17:13;32.60;99.90
13223;DHT22;6676;45.192;5.722;2023-06-26T15:20:08;32.60;99.90
13223;DHT22;6676;45.192;5.722;2023-06-26T15:22:59;32.70;99.90
13223;DHT22;6676;45.192;5.722;2023-06-26T15:25:51;32.60;99.90
13223;DHT22;6676;45.192;5.722;2023-06-26T15:28:42;32.60;99.90
13223;DHT22;6676;45.192;5.722;2023-06-26T15:31:34;32.50;99.90
13223;DHT22;6676;45.192;5.722;2023-06-26T15:34:27;32.40;99.90
13223;DHT22;6676;45.192;5.722;2023-06-26T15:37:18;32.60;99.90
13223;DHT22;6676;45.192;5.722;2023-06-26T15:40:13;32.70;99.90
13223;DHT22;6676;45.192;5.722;2023-06-26T15:43:04;32.80;99.90
13223;DHT22;6676;45.192;5.722;2023-06-26T15:45:56;32.90;99.90
13223;DHT22;6676;45.192;5.722;2023-06-26T15:48:47;33.10;99.90
13223;DHT22;6676;45.192;5.722;2023-06-26T15:51:38;33.20;99.50
13223;DHT22;6676;45.192;5.722;2023-06-26T15:54:31;33.10;99.50
13223;DHT22;6676;45.192;5.722;2023-06-26T15:57:59;33.30;99.30
13223;DHT22;6676;45.192;5.722;2023-06-26T16:00:51;32.90;99.30
13223;DHT22;6676;45.192;5.722;2023-06-26T16:03:43;32.90;99.20
13223;DHT22;6676;45.192;5.722;2023-06-26T16:06:34;32.90;99.40
13223;DHT22;6676;45.192;5.722;2023-06-26T16:09:25;32.70;99.10
13223;DHT22;6676;45.192;5.722;2023-06-26T16:12:37;32.80;98.90
13223;DHT22;6676;45.192;5.722;2023-06-26T16:15:28;33.00;98.80
13223;DHT22;6676;45.192;5.722;2023-06-26T16:18:19;32.90;99.00
13223;DHT22;6676;45.192;5.722;2023-06-26T16:21:11;32.70;99.00
13223;DHT22;6676;45.192;5.722;2023-06-26T16:24:02;32.90;98.20
13223;DHT22;6676;45.192;5.722;2023-06-26T16:26:54;32.60;98.00
13223;DHT22;6676;45.192;5.722;2023-06-26T16:29:45;32.50;97.50
13223;DHT22;6676;45.192;5.722;2023-06-26T16:35:16;32.60;97.80
13223;DHT22;6676;45.192;5.722;2023-06-26T16:38:08;32.70;97.50
13223;DHT22;6676;45.192;5.722;2023-06-26T16:41:01;32.80;97.00
13223;DHT22;6676;45.192;5.722;2023-06-26T16:43:53;32.80;97.10
13223;DHT22;6676;45.192;5.722;2023-06-26T16:46:54;32.30;97.70
13223;DHT22;6676;45.192;5.722;2023-06-26T16:49:51;32.40;97.60
13223;DHT22;6676;45.192;5.722;2023-06-26T16:52:44;32.60;97.40
13223;DHT22;6676;45.192;5.722;2023-06-26T16:55:36;32.40;97.50
13223;DHT22;6676;45.192;5.722;2023-06-26T16:58:32;32.40;97.80
13223;DHT22;6676;45.192;5.722;2023-06-26T17:01:31;32.50;97.60
13223;DHT22;6676;45.192;5.722;2023-06-26T17:04:23;32.40;97.10
13223;DHT22;6676;45.192;5.722;2023-06-26T17:07:15;32.30;97.40
13223;DHT22;6676;45.192;5.722;2023-06-26T17:10:14;32.10;97.50
13223;DHT22;6676;45.192;5.722;2023-06-26T17:13:14;32.20;97.60
13223;DHT22;6676;45.192;5.722;2023-06-26T17:16:11;31.90;97.90
13223;DHT22;6676;45.192;5.722;2023-06-26T17:19:06;31.80;97.90
13223;DHT22;6676;45.192;5.722;2023-06-26T17:21:58;31.60;98.10
13223;DHT22;6676;45.192;5.722;2023-06-26T17:24:49;31.50;98.20
13223;DHT22;6676;45.192;5.722;2023-06-26T17:28:00;31.50;98.70
13223;DHT22;6676;45.192;5.722;2023-06-26T17:30:52;31.60;98.70
13223;DHT22;6676;45.192;5.722;2023-06-26T17:33:43;31.20;99.10
13223;DHT22;6676;45.192;5.722;2023-06-26T17:36:34;31.20;99.00
13223;DHT22;6676;45.192;5.722;2023-06-26T17:39:26;30.80;99.30
13223;DHT22;6676;45.192;5.722;2023-06-26T17:42:23;30.70;99.40
13223;DHT22;6676;45.192;5.722;2023-06-26T17:45:14;30.60;99.50
13223;DHT22;6676;45.192;5.722;2023-06-26T17:48:07;30.40;99.90
13223;DHT22;6676;45.192;5.722;2023-06-26T17:50:59;30.20;99.90
13223;DHT22;6676;45.192;5.722;2023-06-26T17:53:50;30.00;99.90
13223;DHT22;6676;45.192;5.722;2023-06-26T17:56:42;30.00;99.90
13223;DHT22;6676;45.192;5.722;2023-06-26T17:59:36;29.90;99.90
13223;DHT22;6676;45.192;5.722;2023-06-26T18:02:28;29.90;99.90
13223;DHT22;6676;45.192;5.722;2023-06-26T18:05:19;29.80;99.90
13223;DHT22;6676;45.192;5.722;2023-06-26T18:08:11;29.60;99.90
13223;DHT22;6676;45.192;5.722;2023-06-26T18:13:43;29.50;99.90
13223;DHT22;6676;45.192;5.722;2023-06-26T18:16:34;29.40;99.90
13223;DHT22;6676;45.192;5.722;2023-06-26T18:19:25;29.40;99.90
13223;DHT22;6676;45.192;5.722;2023-06-26T18:22:16;29.30;99.90
13223;DHT22;6676;45.192;5.722;2023-06-26T18:25:08;29.30;99.90
13223;DHT22;6676;45.192;5.722;2023-06-26T18:28:00;29.40;99.90
13223;DHT22;6676;45.192;5.722;2023-06-26T18:30:51;29.40;99.90
13223;DHT22;6676;45.192;5.722;2023-06-26T18:33:42;29.00;99.90
13223;DHT22;6676;45.192;5.722;2023-06-26T18:36:36;28.70;99.90
13223;DHT22;6676;45.192;5.722;2023-06-26T18:39:27;28.50;99.90
13223;DHT22;6676;45.192;5.722;2023-06-26T18:42:19;28.40;99.90
13223;DHT22;6676;45.192;5.722;2023-06-26T18:45:16;28.30;99.90
13223;DHT22;6676;45.192;5.722;2023-06-26T18:48:12;28.20;99.90
13223;DHT22;6676;45.192;5.722;2023-06-26T18:51:03;28.10;99.90
13223;DHT22;6676;45.192;5.722;2023-06-26T18:53:55;28.00;99.90
13223;DHT22;6676;45.192;5.722;2023-06-26T18:56:46;28.00;99.90
13223;DHT22;6676;45.192;5.722;2023-06-26T18:59:37;27.90;99.90
13223;DHT22;6676;45.192;5.722;2023-06-26T19:02:29;27.80;99.90
13223;DHT22;6676;45.192;5.722;2023-06-26T19:05:20;27.80;99.90
13223;DHT22;6676;45.192;5.722;2023-06-26T19:08:12;27.70;99.90
13223;DHT22;6676;45.192;5.722;2023-06-26T19:11:03;27.60;99.90
13223;DHT22;6676;45.192;5.722;2023-06-26T19:13:55;27.60;99.90
13223;DHT22;6676;45.192;5.722;2023-06-26T19:16:46;27.50;99.90
13223;DHT22;6676;45.192;5.722;2023-06-26T19:19:38;27.40;99.90
13223;DHT22;6676;45.192;5.722;2023-06-26T19:22:29;27.40;99.90
13223;DHT22;6676;45.192;5.722;2023-06-26T19:25:24;27.30;99.90
13223;DHT22;6676;45.192;5.722;2023-06-26T19:28:16;27.40;99.90
13223;DHT22;6676;45.192;5.722;2023-06-26T19:31:09;27.30;99.90
13223;DHT22;6676;45.192;5.722;2023-06-26T19:34:01;27.20;99.90
13223;DHT22;6676;45.192;5.722;2023-06-26T19:36:52;27.10;99.90
13223;DHT22;6676;45.192;5.722;2023-06-26T19:39:44;27.00;99.90
13223;DHT22;6676;45.192;5.722;2023-06-26T19:42:35;27.00;99.90
13223;DHT22;6676;45.192;5.722;2023-06-26T19:45:26;26.90;99.90
13223;DHT22;6676;45.192;5.722;2023-06-26T19:48:17;26.90;99.90